Time;durP1;ratioP1;P1;durP2;ratioP2;P2;SDS_P1;SDS_P2;PMS_P1;PMS_P2;Temp;Humidity;BMP_temperature;BMP_pressure;BME280_temperature;BME280_humidity;BME280_pressure;Samples;Min_cycle;Max_cycle;Signal;HPM_P1;HPM_P2
2023/02/11 00:00:11;;;;;;;9.02;7.80;;;8.10;99.90;;;;;;5036456;28;20176;-53
2023/02/11 00:02:37;;;;;;;12.25;7.82;;;8.10;99.90;;;;;;5035233;28;20042;-56
2023/02/11 00:05:04;;;;;;;11.55;8.43;;;8.10;99.90;;;;;;5036581;28;20045;-50
2023/02/11 00:07:31;;;;;;;11.90;8.23;;;8.10;99.90;;;;;;5054526;28;20128;-52
2023/02/11 00:09:58;;;;;;;8.88;7.53;;;8.20;99.90;;;;;;5055950;28;20053;-53
2023/02/11 00:12:24;;;;;;;10.93;7.93;;;8.20;99.90;;;;;;5056282;28;20037;-56
2023/02/11 00:14:51;;;;;;;10.85;7.95;;;8.20;99.90;;;;;;5056772;28;20477;-51
2023/02/11 00:17:18;;;;;;;12.63;8.40;;;8.20;99.90;;;;;;5054719;28;20124;-53
2023/02/11 00:19:45;;;;;;;13.93;9.05;;;8.20;99.90;;;;;;5055940;28;20064;-49
2023/02/11 00:22:11;;;;;;;9.23;7.93;;;8.20;99.90;;;;;;5056040;28;20101;-54
2023/02/11 00:24:38;;;;;;;10.55;7.75;;;8.20;99.90;;;;;;5055933;28;20419;-52
2023/02/11 00:27:05;;;;;;;10.23;7.43;;;8.20;99.90;;;;;;5054985;28;20048;-56
2023/02/11 00:29:31;;;;;;;12.98;8.32;;;8.20;99.90;;;;;;5054671;28;20075;-53
2023/02/11 00:32:04;;;;;;;10.45;7.60;;;8.20;99.90;;;;;;5054688;28;20041;-50
2023/02/11 00:34:30;;;;;;;9.90;7.75;;;8.20;99.90;;;;;;5055469;28;20037;-50
2023/02/11 00:36:57;;;;;;;10.32;7.60;;;8.20;99.90;;;;;;5055774;28;20045;-53
2023/02/11 00:39:24;;;;;;;8.73;7.38;;;8.20;99.90;;;;;;5055230;28;20419;-53
2023/02/11 00:41:50;;;;;;;9.35;7.63;;;8.20;99.90;;;;;;5055990;28;20045;-54
2023/02/11 00:44:17;;;;;;;10.55;7.20;;;8.20;99.90;;;;;;5054347;28;20049;-51
2023/02/11 00:46:46;;;;;;;11.90;7.82;;;8.20;99.90;;;;;;5055888;28;20087;-52
2023/02/11 00:49:13;;;;;;;10.45;6.75;;;8.20;99.90;;;;;;5055572;28;20103;-51
2023/02/11 00:51:40;;;;;;;9.18;6.88;;;8.20;99.90;;;;;;5055464;28;20033;-53
2023/02/11 00:54:07;;;;;;;9.32;6.97;;;8.20;99.90;;;;;;5055389;28;20098;-55
2023/02/11 00:56:33;;;;;;;9.43;7.28;;;8.20;99.90;;;;;;5053992;28;20499;-54
2023/02/11 00:59:00;;;;;;;9.43;7.00;;;8.20;99.90;;;;;;5054111;28;20049;-49
2023/02/11 01:01:27;;;;;;;10.55;7.18;;;8.20;99.90;;;;;;5055312;28;20048;-54
2023/02/11 01:03:54;;;;;;;10.07;7.30;;;8.30;99.90;;;;;;5055396;28;20079;-51
2023/02/11 01:06:22;;;;;;;9.98;7.07;;;8.30;99.90;;;;;;5053816;28;20508;-50
2023/02/11 01:08:48;;;;;;;9.20;7.07;;;8.30;99.90;;;;;;5055387;28;20103;-50
2023/02/11 01:11:15;;;;;;;9.98;7.25;;;8.30;99.90;;;;;;5054897;28;20388;-53
2023/02/11 01:13:43;;;;;;;9.07;7.25;;;8.20;99.90;;;;;;5054969;28;20094;-51
2023/02/11 01:16:10;;;;;;;9.40;7.60;;;8.30;99.90;;;;;;5055476;28;20045;-53
2023/02/11 01:18:37;;;;;;;10.82;8.50;;;8.30;99.90;;;;;;5054757;28;20075;-53
2023/02/11 01:21:03;;;;;;;10.35;7.55;;;8.30;99.90;;;;;;5055171;28;20079;-54
2023/02/11 01:23:30;;;;;;;9.98;8.27;;;8.30;99.90;;;;;;5053859;28;20075;-51
2023/02/11 01:25:57;;;;;;;10.82;8.63;;;8.30;99.90;;;;;;5054970;28;20045;-52
2023/02/11 01:28:24;;;;;;;10.38;9.00;;;8.30;99.90;;;;;;5055134;28;20053;-53
2023/02/11 01:30:51;;;;;;;11.63;9.32;;;8.30;99.90;;;;;;5054860;28;20128;-53
2023/02/11 01:33:18;;;;;;;10.45;8.68;;;8.30;99.90;;;;;;5054668;28;20479;-52
2023/02/11 01:35:44;;;;;;;10.48;9.38;;;8.30;99.90;;;;;;5054777;28;20526;-56
2023/02/11 01:38:11;;;;;;;11.38;9.32;;;8.30;99.90;;;;;;5052878;28;20103;-50
2023/02/11 01:40:38;;;;;;;11.63;9.30;;;8.30;99.90;;;;;;5053429;28;20094;-52
2023/02/11 01:43:05;;;;;;;12.20;9.90;;;8.30;99.90;;;;;;5054645;28;20071;-53
2023/02/11 01:45:31;;;;;;;10.55;9.27;;;8.30;99.90;;;;;;5053371;28;20060;-55
2023/02/11 01:48:01;;;;;;;12.05;10.20;;;8.30;99.90;;;;;;5054200;28;20040;-55
2023/02/11 01:50:28;;;;;;;14.23;10.00;;;8.30;99.90;;;;;;5054334;28;20103;-50
2023/02/11 01:57:20;;;;;;;12.88;9.70;;;8.30;99.90;;;;;;5054315;28;20045;-53
2023/02/11 01:58:28;;;;;;;13.20;10.00;;;8.30;99.90;;;;;;5053074;28;20511;-51
2023/02/11 02:00:55;;;;;;;13.55;9.85;;;8.30;99.90;;;;;;5053250;28;20068;-53
2023/02/11 02:03:22;;;;;;;14.93;10.35;;;8.30;99.90;;;;;;5052835;28;20468;-51
2023/02/11 02:05:48;;;;;;;12.98;9.82;;;8.30;99.90;;;;;;5052896;28;20049;-53
2023/02/11 02:08:16;;;;;;;14.32;10.48;;;8.30;99.90;;;;;;5052476;28;20100;-55
2023/02/11 02:10:42;;;;;;;12.75;10.60;;;8.30;99.90;;;;;;5053886;28;20076;-53
2023/02/11 02:13:09;;;;;;;13.27;10.07;;;8.30;99.90;;;;;;5054330;28;20064;-51
2023/02/11 02:15:36;;;;;;;13.23;10.30;;;8.30;99.90;;;;;;5054085;28;20087;-51
2023/02/11 02:18:03;;;;;;;12.95;10.50;;;8.30;99.90;;;;;;5054031;28;20033;-52
2023/02/11 02:20:30;;;;;;;12.50;10.63;;;8.30;99.90;;;;;;5053782;28;20404;-53
2023/02/11 02:22:56;;;;;;;11.63;10.40;;;8.30;99.90;;;;;;5052994;28;20049;-53
2023/02/11 02:25:23;;;;;;;12.77;10.90;;;8.30;99.90;;;;;;5054014;28;20055;-52
2023/02/11 02:27:50;;;;;;;12.70;10.90;;;8.30;99.90;;;;;;5053632;28;20087;-50
2023/02/11 02:30:16;;;;;;;12.30;10.60;;;8.30;99.90;;;;;;5053517;28;20111;-55
2023/02/11 02:32:43;;;;;;;12.05;10.32;;;8.30;99.90;;;;;;5053762;28;20110;-56
2023/02/11 02:35:10;;;;;;;12.63;10.60;;;8.30;99.90;;;;;;5053834;28;20380;-51
2023/02/11 02:37:37;;;;;;;12.25;10.88;;;8.30;99.90;;;;;;5053582;28;20052;-56
2023/02/11 02:40:03;;;;;;;11.98;10.05;;;8.30;99.90;;;;;;5053388;28;20048;-54
2023/02/11 02:42:30;;;;;;;13.82;10.57;;;8.40;99.90;;;;;;5053856;28;20107;-50
2023/02/11 02:44:57;;;;;;;12.25;10.45;;;8.40;99.90;;;;;;5053667;28;20043;-52
2023/02/11 02:47:24;;;;;;;11.65;10.35;;;8.40;99.90;;;;;;5053688;28;20045;-51
2023/02/11 02:49:50;;;;;;;14.23;10.60;;;8.40;99.90;;;;;;5052291;28;20488;-52
2023/02/11 02:52:17;;;;;;;12.60;10.55;;;8.40;99.90;;;;;;5057843;28;20435;-50
2023/02/11 02:54:44;;;;;;;14.00;11.10;;;8.40;99.90;;;;;;5057950;28;20078;-51
2023/02/11 02:57:10;;;;;;;11.77;10.57;;;8.40;99.90;;;;;;5057168;28;20045;-47
2023/02/11 02:59:37;;;;;;;11.75;10.05;;;8.40;99.90;;;;;;5057223;28;20041;-49
2023/02/11 03:02:04;;;;;;;11.98;10.25;;;8.40;99.90;;;;;;5057492;28;20079;-47
2023/02/11 03:04:31;;;;;;;11.52;10.10;;;8.40;99.90;;;;;;5057360;28;20041;-54
2023/02/11 03:06:58;;;;;;;13.95;10.43;;;8.40;99.90;;;;;;5057272;28;20544;-53
2023/02/11 03:09:24;;;;;;;14.23;11.05;;;8.40;99.90;;;;;;5056969;28;20469;-56
2023/02/11 03:11:51;;;;;;;18.38;11.30;;;8.40;99.90;;;;;;5057280;28;20048;-55
2023/02/11 03:14:18;;;;;;;13.65;10.82;;;8.40;99.90;;;;;;5057036;28;20071;-53
2023/02/11 03:16:44;;;;;;;14.50;11.32;;;8.40;99.90;;;;;;5057081;28;20045;-56
2023/02/11 03:19:11;;;;;;;13.40;11.40;;;8.40;99.90;;;;;;5056202;28;20052;-54
2023/02/11 03:21:38;;;;;;;12.23;10.93;;;8.30;99.90;;;;;;5057302;28;20077;-53
2023/02/11 03:24:05;;;;;;;13.32;11.32;;;8.30;99.90;;;;;;5057444;28;20442;-52
2023/02/11 03:26:31;;;;;;;13.15;11.07;;;8.30;99.90;;;;;;5057387;28;20077;-52
2023/02/11 03:28:58;;;;;;;13.05;11.57;;;8.30;99.90;;;;;;5057236;28;20107;-53
2023/02/11 03:31:25;;;;;;;14.63;11.50;;;8.30;99.90;;;;;;5057058;28;20393;-54
2023/02/11 03:33:52;;;;;;;15.80;11.43;;;8.30;99.90;;;;;;5056974;28;20120;-54
2023/02/11 03:36:18;;;;;;;13.50;11.82;;;8.30;99.90;;;;;;5055739;28;20037;-53
2023/02/11 03:38:45;;;;;;;12.50;10.85;;;8.30;99.90;;;;;;5055646;28;20037;-50
2023/02/11 03:41:12;;;;;;;14.00;12.18;;;8.30;99.90;;;;;;5056817;28;20053;-55
2023/02/11 03:43:38;;;;;;;12.88;10.75;;;8.30;99.90;;;;;;5056722;28;20499;-52
2023/02/11 03:46:05;;;;;;;13.85;11.65;;;8.30;99.90;;;;;;5056709;28;20049;-49
2023/02/11 03:48:32;;;;;;;13.45;11.60;;;8.30;99.90;;;;;;5056402;28;20041;-51
2023/02/11 03:50:59;;;;;;;13.13;11.40;;;8.30;99.90;;;;;;5056754;28;20127;-55
2023/02/11 03:53:25;;;;;;;12.50;11.02;;;8.30;99.90;;;;;;5056447;28;20095;-52
2023/02/11 03:55:52;;;;;;;15.48;11.55;;;8.30;99.90;;;;;;5056841;28;20110;-49
2023/02/11 03:58:19;;;;;;;14.77;10.82;;;8.30;99.90;;;;;;5056582;28;20452;-53
2023/02/11 04:00:46;;;;;;;14.23;12.73;;;8.20;99.90;;;;;;5056631;28;20052;-53
2023/02/11 04:03:12;;;;;;;14.02;11.80;;;8.20;99.90;;;;;;5056630;28;20049;-53
2023/02/11 04:05:39;;;;;;;13.55;11.63;;;8.20;99.90;;;;;;5056548;28;20079;-53
2023/02/11 04:08:06;;;;;;;14.50;12.13;;;8.20;99.90;;;;;;5056276;28;20049;-55
2023/02/11 04:10:33;;;;;;;15.65;12.43;;;8.20;99.90;;;;;;5055701;28;20144;-53
2023/02/11 04:12:59;;;;;;;13.23;11.82;;;8.20;99.90;;;;;;5055834;28;20041;-52
2023/02/11 04:15:26;;;;;;;14.75;12.27;;;8.20;99.90;;;;;;5056285;28;20073;-49
2023/02/11 04:17:53;;;;;;;13.55;12.07;;;8.10;99.90;;;;;;5055903;28;20098;-55
2023/02/11 04:20:20;;;;;;;14.27;11.73;;;8.10;99.90;;;;;;5056145;28;20357;-52
2023/02/11 04:22:46;;;;;;;13.45;11.00;;;8.10;99.90;;;;;;5056143;28;20091;-52
2023/02/11 04:25:13;;;;;;;14.10;11.95;;;8.10;99.90;;;;;;5056174;28;20037;-53
2023/02/11 04:27:40;;;;;;;14.75;11.45;;;8.10;99.90;;;;;;5055882;28;20459;-55
2023/02/11 04:30:06;;;;;;;13.50;11.63;;;8.10;99.90;;;;;;5055974;28;20041;-54
2023/02/11 04:32:33;;;;;;;12.98;11.32;;;8.10;99.90;;;;;;5055846;28;20044;-54
2023/02/11 04:35:01;;;;;;;12.60;10.93;;;8.10;99.90;;;;;;5055448;28;20045;-51
2023/02/11 04:37:28;;;;;;;11.95;10.68;;;8.10;99.90;;;;;;5055872;28;20518;-52
2023/02/11 04:39:55;;;;;;;13.15;10.95;;;8.10;99.90;;;;;;5055734;28;20095;-54
2023/02/11 04:42:22;;;;;;;13.77;10.82;;;8.10;99.90;;;;;;5055991;28;20045;-50
2023/02/11 04:44:48;;;;;;;12.05;10.57;;;8.10;99.90;;;;;;5055629;28;20045;-52
2023/02/11 04:47:15;;;;;;;12.43;10.70;;;8.10;99.90;;;;;;5055480;28;20392;-48
2023/02/11 04:49:42;;;;;;;11.93;10.15;;;8.10;99.90;;;;;;5055818;28;20076;-51
2023/02/11 04:52:09;;;;;;;16.77;10.65;;;8.20;99.90;;;;;;5055510;28;20041;-53
2023/02/11 04:54:35;;;;;;;11.38;10.07;;;8.20;99.90;;;;;;5055715;28;20040;-54
2023/02/11 04:57:02;;;;;;;11.50;10.15;;;8.20;99.90;;;;;;5055435;28;20423;-50
2023/02/11 04:59:29;;;;;;;12.65;10.23;;;8.20;99.90;;;;;;5055151;28;20488;-54
2023/02/11 05:01:56;;;;;;;11.88;10.45;;;8.20;99.90;;;;;;5055504;28;20056;-50
2023/02/11 05:04:22;;;;;;;12.07;9.75;;;8.20;99.90;;;;;;5055403;28;20049;-51
2023/02/11 05:06:49;;;;;;;13.13;10.10;;;8.20;99.90;;;;;;5055161;28;20133;-50
2023/02/11 05:09:16;;;;;;;11.90;10.00;;;8.20;99.90;;;;;;5055215;28;20037;-50
2023/02/11 05:11:43;;;;;;;12.77;9.88;;;8.20;99.90;;;;;;5055032;28;20069;-50
2023/02/11 05:14:10;;;;;;;12.98;9.65;;;8.20;99.90;;;;;;5054486;28;20162;-53
2023/02/11 05:16:36;;;;;;;12.73;9.45;;;8.20;99.90;;;;;;5054625;28;20044;-56
2023/02/11 05:19:03;;;;;;;11.10;8.80;;;8.20;99.90;;;;;;5054917;28;20044;-53
2023/02/11 05:21:30;;;;;;;11.32;9.10;;;8.20;99.90;;;;;;5054935;28;20052;-54
2023/02/11 05:23:57;;;;;;;10.77;9.30;;;8.20;99.90;;;;;;5055202;28;20041;-54
2023/02/11 05:26:23;;;;;;;10.82;8.90;;;8.20;99.90;;;;;;5054517;28;20056;-52
2023/02/11 05:28:50;;;;;;;11.18;8.05;;;8.30;99.90;;;;;;5054819;28;20049;-50
2023/02/11 05:31:17;;;;;;;9.93;8.30;;;8.30;99.90;;;;;;5054615;28;20041;-56
2023/02/11 05:33:44;;;;;;;10.45;7.43;;;8.30;99.90;;;;;;5054964;28;20041;-52
2023/02/11 05:36:11;;;;;;;14.27;8.43;;;8.30;99.90;;;;;;5054641;28;20041;-51
2023/02/11 05:38:37;;;;;;;11.10;7.85;;;8.30;99.90;;;;;;5054651;28;20091;-54
2023/02/11 05:41:04;;;;;;;10.10;7.70;;;8.20;99.90;;;;;;5054757;28;20087;-50
2023/02/11 05:43:31;;;;;;;8.93;6.95;;;8.20;99.90;;;;;;5054536;28;20102;-51
2023/02/11 05:45:57;;;;;;;11.15;7.85;;;8.30;99.90;;;;;;5054468;28;20049;-54
2023/02/11 05:48:24;;;;;;;8.93;6.65;;;8.30;99.90;;;;;;5054316;28;20069;-55
2023/02/11 05:50:51;;;;;;;10.90;7.00;;;8.30;99.90;;;;;;5054426;28;20064;-51
2023/02/11 05:53:18;;;;;;;9.25;6.55;;;8.30;99.90;;;;;;5054148;28;20091;-53
2023/02/11 05:55:45;;;;;;;11.02;6.80;;;8.30;99.90;;;;;;5054357;28;20065;-52
2023/02/11 05:58:12;;;;;;;9.65;6.60;;;8.30;99.90;;;;;;5052917;28;20045;-53
2023/02/11 06:00:39;;;;;;;10.95;6.63;;;8.30;99.90;;;;;;5054080;28;20033;-52
2023/02/11 06:03:05;;;;;;;10.05;6.72;;;8.30;99.90;;;;;;5054140;28;20041;-52
2023/02/11 06:05:32;;;;;;;9.77;6.95;;;8.30;99.90;;;;;;5054079;28;20041;-54
2023/02/11 06:07:59;;;;;;;9.02;6.47;;;8.30;99.90;;;;;;5053808;28;20077;-52
2023/02/11 06:10:25;;;;;;;10.52;6.72;;;8.30;99.90;;;;;;5053833;28;20049;-55
2023/02/11 06:12:52;;;;;;;9.77;6.45;;;8.30;99.90;;;;;;5053753;28;20460;-53
2023/02/11 06:15:19;;;;;;;10.32;6.43;;;8.30;99.90;;;;;;5053780;28;20404;-52
2023/02/11 06:17:46;;;;;;;10.77;6.63;;;8.30;99.90;;;;;;5052519;28;20500;-51
2023/02/11 06:20:12;;;;;;;9.88;6.30;;;8.40;99.90;;;;;;5053704;28;20099;-51
2023/02/11 06:22:39;;;;;;;9.98;5.97;;;8.40;99.90;;;;;;5053791;28;20103;-52
2023/02/11 06:25:06;;;;;;;9.32;6.28;;;8.40;99.90;;;;;;5052805;28;20053;-53
2023/02/11 06:27:33;;;;;;;10.13;6.90;;;8.30;99.90;;;;;;5053911;28;20447;-53
2023/02/11 06:29:59;;;;;;;10.80;6.75;;;8.30;99.90;;;;;;5053815;28;20469;-51
2023/02/11 06:32:26;;;;;;;11.48;6.50;;;8.40;99.90;;;;;;5053552;28;20041;-49
2023/02/11 06:35:11;;;;;;;10.13;6.00;;;8.40;99.90;;;;;;5053670;28;20116;-51
2023/02/11 06:37:38;;;;;;;11.27;6.00;;;8.40;99.90;;;;;;5053714;28;20108;-53
2023/02/11 06:40:05;;;;;;;7.32;5.70;;;8.40;99.90;;;;;;5053797;28;20103;-53
2023/02/11 06:42:31;;;;;;;10.50;5.82;;;8.40;99.90;;;;;;5053811;28;20127;-53
2023/02/11 06:44:58;;;;;;;9.00;6.38;;;8.40;99.90;;;;;;5053664;28;20049;-55
2023/02/11 06:47:25;;;;;;;11.68;6.20;;;8.40;99.90;;;;;;5053434;28;20131;-52
2023/02/11 06:49:52;;;;;;;10.55;6.20;;;8.40;99.90;;;;;;5053811;28;20072;-55
2023/02/11 06:52:18;;;;;;;12.90;6.63;;;8.40;99.90;;;;;;5053435;28;20438;-53
2023/02/11 06:54:45;;;;;;;10.65;6.28;;;8.40;99.90;;;;;;5053555;28;20503;-52
2023/02/11 06:57:12;;;;;;;8.75;5.63;;;8.40;99.90;;;;;;5053129;28;20384;-55
2023/02/11 06:59:39;;;;;;;9.13;6.05;;;8.40;99.90;;;;;;5053404;28;20049;-54
2023/02/11 07:02:05;;;;;;;10.48;5.68;;;8.40;99.90;;;;;;5053342;28;20045;-53
2023/02/11 07:04:32;;;;;;;11.77;6.00;;;8.40;99.90;;;;;;5053512;28;20090;-53
2023/02/11 07:06:59;;;;;;;8.85;5.75;;;8.40;99.90;;;;;;5053250;28;20565;-51
2023/02/11 07:09:26;;;;;;;12.27;5.47;;;8.40;99.90;;;;;;5053352;28;20487;-54
2023/02/11 07:11:52;;;;;;;10.20;6.63;;;8.40;99.90;;;;;;5053242;28;20110;-55
2023/02/11 07:14:19;;;;;;;12.27;6.32;;;8.40;99.90;;;;;;5053320;28;20099;-47
2023/02/11 07:16:46;;;;;;;12.23;5.82;;;8.40;99.90;;;;;;5051831;28;20041;-47
2023/02/11 07:19:12;;;;;;;9.32;5.47;;;8.40;99.90;;;;;;5053133;28;20037;-51
2023/02/11 07:21:39;;;;;;;8.68;5.60;;;8.40;99.90;;;;;;5052798;28;20041;-47
2023/02/11 07:24:06;;;;;;;10.05;5.60;;;8.40;99.90;;;;;;5053015;28;20099;-49
2023/02/11 07:26:36;;;;;;;9.40;5.03;;;8.40;99.90;;;;;;5052690;28;20111;-54
2023/02/11 07:29:03;;;;;;;8.52;5.22;;;8.50;99.90;;;;;;5052846;28;20162;-55
2023/02/11 07:31:30;;;;;;;9.35;5.35;;;8.50;99.90;;;;;;5051591;28;20481;-51
2023/02/11 07:33:58;;;;;;;10.05;5.32;;;8.50;99.90;;;;;;5053157;28;20041;-52
2023/02/11 07:36:24;;;;;;;8.63;4.95;;;8.50;99.90;;;;;;5054146;28;20056;-50
2023/02/11 07:38:51;;;;;;;8.07;4.35;;;8.50;99.90;;;;;;5055705;28;20365;-55
2023/02/11 07:41:18;;;;;;;8.95;4.53;;;8.50;99.90;;;;;;5056743;28;20098;-53
2023/02/11 07:43:45;;;;;;;7.72;4.35;;;8.50;99.90;;;;;;5056869;28;20040;-52
2023/02/11 07:46:11;;;;;;;8.18;4.10;;;8.50;99.90;;;;;;5056420;28;20048;-53
2023/02/11 07:48:38;;;;;;;9.60;4.40;;;8.50;99.90;;;;;;5056599;28;20049;-56
2023/02/11 07:51:05;;;;;;;7.65;4.15;;;8.50;99.90;;;;;;5055519;28;20468;-55
2023/02/11 07:53:32;;;;;;;10.38;4.30;;;8.50;99.90;;;;;;5056691;28;20045;-53
2023/02/11 07:55:58;;;;;;;6.65;3.97;;;8.60;99.90;;;;;;5056428;28;20037;-50
2023/02/11 07:58:25;;;;;;;6.78;3.75;;;8.50;99.90;;;;;;5056781;28;20442;-52
2023/02/11 08:00:52;;;;;;;9.25;3.75;;;8.60;99.90;;;;;;5056411;28;20045;-53
2023/02/11 08:03:18;;;;;;;8.20;4.20;;;8.60;99.90;;;;;;5056268;28;20037;-55
2023/02/11 08:05:45;;;;;;;6.53;3.50;;;8.60;99.90;;;;;;5056515;28;20049;-54
2023/02/11 08:08:12;;;;;;;7.38;3.88;;;8.60;99.90;;;;;;5055930;28;20064;-55
2023/02/11 08:10:39;;;;;;;7.97;3.63;;;8.60;99.90;;;;;;5055851;28;20171;-52
2023/02/11 08:13:05;;;;;;;7.85;3.75;;;8.60;99.90;;;;;;5056083;28;20083;-52
2023/02/11 08:15:32;;;;;;;9.20;3.78;;;8.60;99.90;;;;;;5056297;28;20068;-53
2023/02/11 08:17:59;;;;;;;6.25;3.95;;;8.60;99.90;;;;;;5056178;28;20037;-49
2023/02/11 08:20:25;;;;;;;9.98;3.83;;;8.60;99.90;;;;;;5056364;28;20120;-55
2023/02/11 08:22:52;;;;;;;5.57;3.60;;;8.70;99.90;;;;;;5056064;28;20538;-55
2023/02/11 08:25:19;;;;;;;7.07;3.78;;;8.70;99.90;;;;;;5055820;28;20044;-54
2023/02/11 08:27:45;;;;;;;8.85;3.97;;;8.70;99.90;;;;;;5055917;28;20095;-57
2023/02/11 08:30:12;;;;;;;7.25;3.90;;;8.70;99.90;;;;;;5056080;28;20053;-55
2023/02/11 08:32:39;;;;;;;6.38;3.55;;;8.80;99.90;;;;;;5055531;28;20542;-56
2023/02/11 08:35:06;;;;;;;6.03;3.40;;;8.80;99.90;;;;;;5055802;28;20075;-52
2023/02/11 08:37:33;;;;;;;6.35;3.13;;;8.80;99.90;;;;;;5055799;28;20043;-54
2023/02/11 08:40:00;;;;;;;6.20;3.15;;;8.80;99.90;;;;;;5054405;28;20140;-54
2023/02/11 08:42:27;;;;;;;6.32;2.85;;;8.90;99.90;;;;;;5056074;28;20052;-51
2023/02/11 08:44:53;;;;;;;7.38;3.28;;;8.90;99.90;;;;;;5055672;28;20065;-47
2023/02/11 08:47:20;;;;;;;5.95;3.00;;;9.00;99.90;;;;;;5055121;28;20092;-51
2023/02/11 08:49:47;;;;;;;5.70;2.92;;;9.00;99.90;;;;;;5054799;28;20138;-55
2023/02/11 08:52:13;;;;;;;4.60;2.25;;;9.00;99.90;;;;;;5054291;28;20385;-53
2023/02/11 08:54:40;;;;;;;6.18;2.40;;;9.10;99.90;;;;;;5055234;28;20033;-54
2023/02/11 08:57:07;;;;;;;6.60;2.42;;;9.10;99.90;;;;;;5055186;28;20132;-55
2023/02/11 08:59:34;;;;;;;4.43;2.08;;;9.10;99.90;;;;;;5055280;28;20052;-55
2023/02/11 09:02:00;;;;;;;6.35;2.40;;;9.20;99.90;;;;;;5055226;28;20037;-55
2023/02/11 09:04:27;;;;;;;5.85;2.45;;;9.20;99.90;;;;;;5055029;28;20123;-54
2023/02/11 09:06:54;;;;;;;5.75;2.40;;;9.30;99.90;;;;;;5054947;28;20098;-51
2023/02/11 09:09:21;;;;;;;6.60;2.45;;;9.30;99.90;;;;;;5054807;28;20114;-54
2023/02/11 09:11:47;;;;;;;6.22;2.75;;;9.30;99.90;;;;;;5054290;28;20049;-52
2023/02/11 09:14:14;;;;;;;6.57;2.60;;;9.30;99.90;;;;;;5048184;28;20055;-51
2023/02/11 09:16:41;;;;;;;5.55;2.60;;;9.40;99.90;;;;;;5039369;28;20485;-50
2023/02/11 09:19:08;;;;;;;5.70;2.15;;;9.40;99.90;;;;;;5049588;28;20037;-55
2023/02/11 09:21:35;;;;;;;4.93;2.40;;;9.40;99.90;;;;;;5053766;28;20036;-48
2023/02/11 09:24:01;;;;;;;6.38;2.17;;;9.40;99.90;;;;;;5054735;28;20095;-54
2023/02/11 09:26:28;;;;;;;8.63;2.70;;;9.40;99.90;;;;;;5054303;28;20099;-51
2023/02/11 09:28:55;;;;;;;6.15;2.10;;;9.50;99.90;;;;;;5052173;28;20053;-49
2023/02/11 09:31:21;;;;;;;3.70;2.20;;;9.40;99.90;;;;;;5054743;28;20059;-51
2023/02/11 09:33:48;;;;;;;5.82;2.10;;;9.50;99.90;;;;;;5054667;28;20033;-51
2023/02/11 09:36:15;;;;;;;4.22;2.15;;;9.50;99.90;;;;;;5053388;28;20048;-53
2023/02/11 09:38:42;;;;;;;6.43;3.03;;;9.50;99.90;;;;;;5054428;28;20044;-49
2023/02/11 09:41:09;;;;;;;5.50;2.53;;;9.50;99.90;;;;;;5054469;28;20044;-48
2023/02/11 09:43:35;;;;;;;9.05;2.35;;;9.60;99.90;;;;;;5053287;28;20044;-49
2023/02/11 09:46:02;;;;;;;6.40;2.20;;;9.60;99.90;;;;;;5054437;28;20102;-50
2023/02/11 09:48:29;;;;;;;5.13;2.72;;;9.70;99.90;;;;;;5054537;28;20098;-49
2023/02/11 09:50:56;;;;;;;14.18;3.45;;;9.70;99.90;;;;;;5054529;28;20080;-50
2023/02/11 09:53:22;;;;;;;4.38;2.20;;;9.70;99.90;;;;;;5053263;28;20526;-50
2023/02/11 09:55:51;;;;;;;5.97;2.50;;;9.70;99.90;;;;;;5054175;28;20033;-54
2023/02/11 09:58:18;;;;;;;6.97;2.25;;;9.80;99.90;;;;;;5054561;28;20041;-47
2023/02/11 10:00:45;;;;;;;5.13;2.30;;;9.80;99.90;;;;;;5053641;28;20037;-49
2023/02/11 10:03:11;;;;;;;5.95;2.10;;;9.80;99.90;;;;;;5054343;28;20041;-48
2023/02/11 10:05:38;;;;;;;5.68;2.42;;;9.90;99.90;;;;;;5054365;28;20384;-48
2023/02/11 10:08:08;;;;;;;5.93;2.63;;;9.90;99.90;;;;;;5053655;28;20048;-50
2023/02/11 10:10:35;;;;;;;6.32;2.53;;;10.00;99.90;;;;;;5042340;28;20128;-51
2023/02/11 10:13:02;;;;;;;3.67;2.22;;;10.00;99.90;;;;;;5033509;28;20389;-54
2023/02/11 10:15:28;;;;;;;19.35;9.68;;;10.00;99.90;;;;;;5033944;28;20033;-57
2023/02/11 10:17:55;;;;;;;6.30;2.63;;;10.00;99.90;;;;;;5048697;28;20037;-52
2023/02/11 10:20:22;;;;;;;6.00;3.33;;;10.00;99.90;;;;;;5051192;28;20098;-55
2023/02/11 10:22:49;;;;;;;4.95;2.17;;;10.10;99.90;;;;;;5053644;28;20124;-53
2023/02/11 10:25:15;;;;;;;8.20;2.75;;;10.10;99.90;;;;;;5052875;28;20049;-53
2023/02/11 10:27:42;;;;;;;4.93;2.00;;;10.20;99.90;;;;;;5053682;28;20045;-53
2023/02/11 10:30:09;;;;;;;5.20;1.90;;;10.20;99.90;;;;;;5053445;28;20069;-50
2023/02/11 10:32:36;;;;;;;4.55;2.05;;;10.20;99.90;;;;;;5053115;28;20515;-50
2023/02/11 10:35:02;;;;;;;6.78;2.13;;;10.20;99.90;;;;;;5049705;28;20096;-50
2023/02/11 10:37:29;;;;;;;6.80;2.40;;;10.20;99.90;;;;;;5047612;28;20041;-52
2023/02/11 10:39:56;;;;;;;5.13;2.55;;;10.20;99.90;;;;;;5050856;28;20077;-51
2023/02/11 10:42:23;;;;;;;4.47;2.10;;;10.30;99.90;;;;;;5052570;28;20048;-52
2023/02/11 10:44:49;;;;;;;4.55;1.85;;;10.30;99.90;;;;;;5052797;28;20044;-48
2023/02/11 10:47:17;;;;;;;5.10;1.98;;;10.30;99.90;;;;;;5052589;28;20041;-48
2023/02/11 10:49:44;;;;;;;7.93;2.50;;;10.40;99.90;;;;;;5051394;28;20110;-55
2023/02/11 10:52:10;;;;;;;4.30;1.90;;;10.40;99.90;;;;;;5050264;28;20083;-47
2023/02/11 10:54:37;;;;;;;6.82;1.70;;;10.40;99.90;;;;;;5051840;28;20087;-48
2023/02/11 10:57:04;;;;;;;7.55;2.20;;;10.40;99.90;;;;;;5051779;28;20071;-49
2023/02/11 10:59:31;;;;;;;5.13;1.90;;;10.40;99.90;;;;;;5051015;28;20045;-50
2023/02/11 11:01:59;;;;;;;7.57;2.15;;;10.50;99.90;;;;;;5050286;28;20048;-50
2023/02/11 11:04:26;;;;;;;7.53;2.00;;;10.40;99.90;;;;;;5051146;28;20033;-49
2023/02/11 11:06:53;;;;;;;3.70;1.73;;;10.40;99.90;;;;;;5052049;28;20043;-50
2023/02/11 11:09:19;;;;;;;7.20;1.80;;;10.40;99.90;;;;;;5051971;28;20095;-49
2023/02/11 11:11:46;;;;;;;4.85;1.70;;;10.40;99.90;;;;;;5053553;28;20557;-53
2023/02/11 11:14:13;;;;;;;3.72;1.70;;;10.40;99.90;;;;;;5056530;28;20090;-49
2023/02/11 11:16:40;;;;;;;6.38;1.80;;;10.40;99.90;;;;;;5056926;28;20395;-50
2023/02/11 11:19:07;;;;;;;4.70;1.60;;;10.40;99.90;;;;;;5057025;28;20091;-51
2023/02/11 11:21:33;;;;;;;7.28;2.05;;;10.50;99.90;;;;;;5057179;28;20098;-50
2023/02/11 11:24:00;;;;;;;6.57;1.88;;;10.50;99.90;;;;;;5056992;28;20037;-53
2023/02/11 11:26:27;;;;;;;5.85;1.80;;;10.50;99.90;;;;;;5057121;28;20041;-52
2023/02/11 11:28:54;;;;;;;6.20;1.80;;;10.60;99.90;;;;;;5057280;28;20048;-49
2023/02/11 11:31:20;;;;;;;4.95;1.80;;;10.60;99.90;;;;;;5057263;28;20049;-50
2023/02/11 11:33:48;;;;;;;9.48;2.03;;;10.60;99.90;;;;;;5056889;28;20049;-54
2023/02/11 11:36:14;;;;;;;4.45;1.65;;;10.70;99.90;;;;;;5056800;28;20045;-54
2023/02/11 11:38:41;;;;;;;4.95;1.80;;;10.70;99.90;;;;;;5056837;28;20040;-54
2023/02/11 11:41:08;;;;;;;12.30;7.43;;;10.70;99.90;;;;;;5056803;28;20122;-54
2023/02/11 11:43:36;;;;;;;9.18;1.90;;;10.70;99.90;;;;;;5056719;28;20052;-50
2023/02/11 11:46:05;;;;;;;6.18;2.22;;;10.80;99.90;;;;;;5056430;28;20033;-53
2023/02/11 11:48:31;;;;;;;10.15;2.72;;;10.80;99.90;;;;;;5056526;28;20040;-56
2023/02/11 11:50:58;;;;;;;7.32;2.30;;;10.80;99.90;;;;;;5056375;28;20071;-54
2023/02/11 11:53:25;;;;;;;8.70;2.42;;;10.90;99.90;;;;;;5056506;28;20099;-55
2023/02/11 11:55:52;;;;;;;6.90;2.15;;;10.90;99.90;;;;;;5056548;28;20606;-54
2023/02/11 11:58:18;;;;;;;11.00;2.17;;;10.90;99.90;;;;;;5056416;28;20044;-54
2023/02/11 12:00:45;;;;;;;5.55;1.90;;;10.90;99.90;;;;;;5056308;28;20048;-48
2023/02/11 12:03:12;;;;;;;10.27;2.55;;;10.90;99.90;;;;;;5055961;28;20072;-50
2023/02/11 12:05:38;;;;;;;5.68;1.73;;;10.90;99.90;;;;;;5056151;28;20068;-50
2023/02/11 12:08:05;;;;;;;5.15;1.75;;;10.90;99.90;;;;;;5056418;28;20045;-51
2023/02/11 12:10:32;;;;;;;5.70;1.55;;;11.00;99.90;;;;;;5055794;28;20132;-53
2023/02/11 12:12:59;;;;;;;7.15;2.10;;;11.00;99.90;;;;;;5056045;28;20056;-49
2023/02/11 12:15:25;;;;;;;6.95;2.33;;;11.00;99.90;;;;;;5055017;28;20033;-47
2023/02/11 12:17:52;;;;;;;12.90;2.60;;;10.90;99.90;;;;;;5056016;28;20045;-49
2023/02/11 12:20:19;;;;;;;5.43;2.28;;;11.00;99.90;;;;;;5056423;28;20055;-50
2023/02/11 12:22:46;;;;;;;5.25;2.13;;;11.00;99.90;;;;;;5055033;28;20041;-48
2023/02/11 12:25:12;;;;;;;8.75;2.47;;;11.00;99.90;;;;;;5055684;28;20049;-52
2023/02/11 12:27:39;;;;;;;8.55;2.00;;;11.00;99.90;;;;;;5055946;28;20381;-52
2023/02/11 12:30:06;;;;;;;13.07;2.60;;;11.10;99.90;;;;;;5055964;28;20052;-54
2023/02/11 12:32:35;;;;;;;7.90;2.10;;;11.10;99.90;;;;;;5055745;28;20040;-52
2023/02/11 12:35:02;;;;;;;10.85;2.10;;;11.10;99.90;;;;;;5056142;28;20033;-50
2023/02/11 12:37:28;;;;;;;15.00;2.63;;;11.10;99.90;;;;;;5054117;28;20447;-49
2023/02/11 12:39:55;;;;;;;12.77;3.03;;;11.20;99.90;;;;;;5054501;28;20071;-53
2023/02/11 12:45:07;;;;;;;5.38;2.10;;;11.20;99.90;;;;;;5055694;28;20053;-49
2023/02/11 12:47:34;;;;;;;7.05;2.35;;;11.20;99.90;;;;;;5055431;28;20491;-52
2023/02/11 12:50:01;;;;;;;13.25;2.38;;;11.20;99.90;;;;;;5055552;28;20097;-51